Time;durP1;ratioP1;P1;durP2;ratioP2;P2;SDS_P1;SDS_P2;PMS_P1;PMS_P2;Temp;Humidity;BMP_temperature;BMP_pressure;BME280_temperature;BME280_humidity;BME280_pressure;Samples;Min_cycle;Max_cycle;Signal;HPM_P1;HPM_P2
2024/01/10 00:01:42;;;;;;;12.20;5.30;;;-3.40;99.90;;;;;;5050925;28;20182;-53
2024/01/10 00:04:07;;;;;;;13.37;6.60;;;-3.40;99.90;;;;;;5051487;28;20181;-48
2024/01/10 00:06:33;;;;;;;12.27;5.63;;;-3.40;99.90;;;;;;5050860;28;20165;-47
2024/01/10 00:08:58;;;;;;;10.10;5.47;;;-3.40;99.90;;;;;;5051232;28;20233;-48
2024/01/10 00:11:24;;;;;;;9.87;5.20;;;-3.50;99.90;;;;;;5050883;28;20616;-48
2024/01/10 00:13:49;;;;;;;12.83;6.40;;;-3.40;99.90;;;;;;5050788;28;20169;-49
2024/01/10 00:16:15;;;;;;;11.63;6.13;;;-3.40;99.90;;;;;;5050819;28;20567;-47
2024/01/10 00:18:41;;;;;;;11.30;5.47;;;-3.40;99.90;;;;;;5050802;28;20170;-47
2024/01/10 00:21:07;;;;;;;9.23;5.63;;;-3.40;99.90;;;;;;5051242;28;20180;-47
2024/01/10 00:23:32;;;;;;;10.37;5.60;;;-3.40;99.90;;;;;;5050665;28;20195;-47
2024/01/10 00:25:58;;;;;;;13.17;6.03;;;-3.40;99.90;;;;;;5051623;28;20203;-49
2024/01/10 00:28:24;;;;;;;12.73;5.80;;;-3.40;99.90;;;;;;5054607;28;20172;-47
2024/01/10 00:30:50;;;;;;;10.43;5.57;;;-3.40;99.90;;;;;;5054554;28;20177;-49
2024/01/10 00:33:16;;;;;;;10.90;5.97;;;-3.40;99.90;;;;;;5054616;28;20173;-48
2024/01/10 00:35:41;;;;;;;12.13;6.87;;;-3.40;99.90;;;;;;5054464;28;20548;-47
2024/01/10 00:38:07;;;;;;;11.40;6.30;;;-3.40;99.90;;;;;;5054931;28;20175;-47
2024/01/10 00:40:32;;;;;;;11.40;6.03;;;-3.40;99.90;;;;;;5054407;28;20174;-48
2024/01/10 00:42:58;;;;;;;10.50;5.87;;;-3.40;99.90;;;;;;5054584;28;20629;-48
2024/01/10 00:45:24;;;;;;;12.53;5.80;;;-3.50;99.90;;;;;;5053061;28;20678;-47
2024/01/10 00:47:49;;;;;;;11.03;6.13;;;-3.40;99.90;;;;;;5054337;28;20524;-48
2024/01/10 00:50:16;;;;;;;14.37;7.40;;;-3.50;99.90;;;;;;5054259;28;20177;-47
2024/01/10 00:52:42;;;;;;;11.27;6.30;;;-3.40;99.90;;;;;;5054152;28;20657;-47
2024/01/10 00:55:08;;;;;;;11.57;6.30;;;-3.50;99.90;;;;;;5054462;28;20227;-48
2024/01/10 00:57:33;;;;;;;12.00;6.13;;;-3.50;99.90;;;;;;5054344;28;20182;-48
2024/01/10 00:59:59;;;;;;;11.70;6.30;;;-3.50;99.90;;;;;;5052791;28;20176;-47
2024/01/10 01:02:24;;;;;;;10.33;6.47;;;-3.50;99.90;;;;;;5054001;28;20176;-47
2024/01/10 01:04:50;;;;;;;10.80;6.07;;;-3.60;99.90;;;;;;5053932;28;20180;-50
2024/01/10 01:07:15;;;;;;;11.43;7.53;;;-3.50;99.90;;;;;;5053851;28;20172;-47
2024/01/10 01:09:41;;;;;;;11.70;6.53;;;-3.60;99.90;;;;;;5053593;28;20186;-47
2024/01/10 01:12:06;;;;;;;10.80;6.27;;;-3.60;99.90;;;;;;5054323;28;20595;-47
2024/01/10 01:14:32;;;;;;;11.53;6.47;;;-3.60;99.90;;;;;;5053695;28;20176;-47
2024/01/10 01:16:58;;;;;;;11.53;6.43;;;-3.60;99.90;;;;;;5053725;28;20169;-47
2024/01/10 01:19:23;;;;;;;13.07;5.80;;;-3.60;99.90;;;;;;5053679;28;20171;-47
2024/01/10 01:21:49;;;;;;;9.77;5.87;;;-3.50;99.90;;;;;;5053715;28;20175;-47
2024/01/10 01:24:14;;;;;;;11.77;5.87;;;-3.50;99.90;;;;;;5053592;28;20225;-47
2024/01/10 01:26:40;;;;;;;10.53;5.70;;;-3.60;99.90;;;;;;5054009;28;20176;-47
2024/01/10 01:29:05;;;;;;;10.13;5.67;;;-3.30;99.90;;;;;;5054043;28;20174;-49
2024/01/10 01:31:31;;;;;;;13.27;6.27;;;-3.70;99.90;;;;;;5053512;28;20247;-47
2024/01/10 01:33:57;;;;;;;15.20;5.93;;;-3.60;99.90;;;;;;5053393;28;20176;-47
2024/01/10 01:36:23;;;;;;;12.17;6.27;;;-3.50;99.90;;;;;;5053199;28;20605;-47
2024/01/10 01:38:48;;;;;;;10.40;5.70;;;-3.60;99.90;;;;;;5053372;28;20171;-48
2024/01/10 01:41:14;;;;;;;13.10;7.10;;;-3.60;99.90;;;;;;5053376;28;20173;-48
2024/01/10 01:43:40;;;;;;;13.00;5.97;;;-3.50;99.90;;;;;;5053155;28;20712;-47
2024/01/10 01:46:07;;;;;;;11.97;6.30;;;-3.50;99.90;;;;;;5054000;28;20261;-48
2024/01/10 01:48:33;;;;;;;12.17;5.83;;;-3.60;99.90;;;;;;5053188;28;20262;-51
2024/01/10 01:51:04;;;;;;;10.40;5.97;;;-3.60;99.90;;;;;;5053114;28;20279;-50
2024/01/10 01:53:30;;;;;;;14.13;6.20;;;-3.60;99.90;;;;;;5053114;28;20189;-50
2024/01/10 01:55:56;;;;;;;13.27;6.27;;;-3.60;99.90;;;;;;5052820;28;20223;-50
2024/01/10 01:58:23;;;;;;;14.83;6.83;;;-3.60;99.90;;;;;;5053012;28;20246;-51
2024/01/10 02:00:49;;;;;;;12.50;5.47;;;-3.60;99.90;;;;;;5053042;28;20259;-53
2024/01/10 02:03:15;;;;;;;10.97;6.20;;;-3.60;99.90;;;;;;5052946;28;20161;-49
2024/01/10 02:05:41;;;;;;;11.67;6.33;;;-3.60;99.90;;;;;;5053068;28;20178;-47
2024/01/10 02:08:08;;;;;;;10.77;5.77;;;-3.60;99.90;;;;;;5053314;28;20168;-48
2024/01/10 02:10:34;;;;;;;12.03;4.93;;;-3.60;99.90;;;;;;5052738;28;20222;-48
2024/01/10 02:13:00;;;;;;;12.00;6.03;;;-3.60;99.90;;;;;;5052816;28;21348;-50
2024/01/10 02:15:25;;;;;;;12.17;6.00;;;-3.60;99.90;;;;;;5052653;28;20778;-49
2024/01/10 02:17:51;;;;;;;10.03;5.07;;;-3.60;99.90;;;;;;5051735;28;20182;-48
2024/01/10 02:20:17;;;;;;;11.87;6.03;;;-3.70;99.90;;;;;;5052522;28;20176;-49
2024/01/10 02:22:43;;;;;;;10.77;6.23;;;-3.80;99.90;;;;;;5052485;28;20192;-47
2024/01/10 02:25:12;;;;;;;14.43;5.73;;;-3.70;99.90;;;;;;5052889;28;20173;-50
2024/01/10 02:27:38;;;;;;;13.50;6.53;;;-3.70;99.90;;;;;;5052900;28;20230;-49
2024/01/10 02:30:05;;;;;;;13.77;7.00;;;-3.70;99.90;;;;;;5052355;28;20160;-49
2024/01/10 02:32:31;;;;;;;42.00;20.17;;;-3.80;99.90;;;;;;5051033;28;20534;-50
2024/01/10 02:34:57;;;;;;;38.33;20.10;;;-3.70;99.90;;;;;;5052178;28;20205;-49
2024/01/10 02:37:22;;;;;;;16.93;9.97;;;-3.80;99.90;;;;;;5050987;28;20176;-49
2024/01/10 02:39:48;;;;;;;14.60;6.50;;;-3.70;99.90;;;;;;5050917;28;20176;-50
2024/01/10 02:42:13;;;;;;;12.20;6.30;;;-3.70;99.90;;;;;;5052130;28;20167;-49
2024/01/10 02:44:39;;;;;;;12.43;6.50;;;-3.70;99.90;;;;;;5052596;28;20176;-48
2024/01/10 02:47:06;;;;;;;8.93;5.17;;;-3.70;99.90;;;;;;5052029;28;20177;-50
2024/01/10 02:49:32;;;;;;;11.27;6.70;;;-3.70;99.90;;;;;;5051335;28;20164;-49
2024/01/10 02:51:58;;;;;;;11.93;6.10;;;-3.70;99.90;;;;;;5051985;28;20164;-48
2024/01/10 02:54:23;;;;;;;9.40;5.30;;;-3.70;99.90;;;;;;5051814;28;20164;-48
2024/01/10 02:56:49;;;;;;;11.33;5.17;;;-3.90;99.90;;;;;;5051722;28;20784;-48
2024/01/10 02:59:14;;;;;;;10.00;5.67;;;-3.80;99.90;;;;;;5051897;28;20190;-50
2024/01/10 03:01:40;;;;;;;10.57;5.70;;;-3.80;99.90;;;;;;5051776;28;20534;-48
2024/01/10 03:04:05;;;;;;;9.97;5.90;;;-3.80;99.90;;;;;;5052224;28;20533;-51
2024/01/10 03:06:31;;;;;;;9.40;5.37;;;-3.80;99.90;;;;;;5051653;28;20172;-49
2024/01/10 03:08:56;;;;;;;10.23;5.70;;;-3.90;99.90;;;;;;5051703;28;20274;-47
2024/01/10 03:11:22;;;;;;;11.87;5.93;;;-3.80;99.90;;;;;;5051593;28;20166;-48
2024/01/10 03:13:49;;;;;;;10.67;6.50;;;-3.80;99.90;;;;;;5051589;28;20520;-49
2024/01/10 03:16:15;;;;;;;12.10;5.67;;;-3.90;99.90;;;;;;5051495;28;20563;-54
2024/01/10 03:18:41;;;;;;;14.13;6.23;;;-3.90;99.90;;;;;;5051665;28;20179;-47
2024/01/10 03:21:07;;;;;;;10.33;5.30;;;-3.90;99.90;;;;;;5052260;28;20512;-49
2024/01/10 03:23:32;;;;;;;12.30;6.00;;;-3.90;99.90;;;;;;5051322;28;20614;-49
2024/01/10 03:25:58;;;;;;;8.53;5.43;;;-3.80;99.90;;;;;;5051361;28;20169;-47
2024/01/10 03:28:23;;;;;;;14.13;5.90;;;-3.80;99.90;;;;;;5051594;28;20180;-47
2024/01/10 03:30:49;;;;;;;13.37;5.23;;;-3.90;99.90;;;;;;5051102;28;20626;-48
2024/01/10 03:33:15;;;;;;;14.07;5.60;;;-3.90;99.90;;;;;;5051155;28;20168;-49
2024/01/10 03:35:41;;;;;;;12.33;6.37;;;-3.90;99.90;;;;;;5051364;28;20213;-48
2024/01/10 03:38:07;;;;;;;10.03;5.57;;;-4.00;99.90;;;;;;5051960;28;20168;-48
2024/01/10 03:40:33;;;;;;;15.20;7.23;;;-4.00;99.90;;;;;;5051134;28;20205;-47
2024/01/10 03:42:58;;;;;;;12.77;7.17;;;-4.10;99.90;;;;;;5051340;28;20294;-48
2024/01/10 03:45:24;;;;;;;15.27;6.80;;;-4.00;99.90;;;;;;5051043;28;20189;-47
2024/01/10 03:47:50;;;;;;;14.20;7.40;;;-4.10;99.90;;;;;;5051110;28;20170;-48
2024/01/10 03:50:19;;;;;;;17.37;7.57;;;-4.10;99.90;;;;;;5051305;28;20194;-47
2024/01/10 03:52:46;;;;;;;15.07;7.33;;;-4.10;99.90;;;;;;5051334;28;20201;-46
2024/01/10 03:55:15;;;;;;;15.43;7.90;;;-4.20;99.90;;;;;;5050981;28;20219;-47
2024/01/10 03:57:42;;;;;;;15.90;8.00;;;-4.10;99.90;;;;;;5051207;28;20212;-47
2024/01/10 04:00:08;;;;;;;14.47;7.03;;;-4.00;99.90;;;;;;5053057;28;20198;-47
2024/01/10 04:02:35;;;;;;;12.20;6.17;;;-4.10;99.90;;;;;;5055065;28;20595;-49
2024/01/10 04:05:01;;;;;;;18.67;6.80;;;-4.00;99.90;;;;;;5055047;28;20260;-47
2024/01/10 04:07:28;;;;;;;13.33;6.30;;;-4.00;99.90;;;;;;5055002;28;20212;-47
2024/01/10 04:09:53;;;;;;;13.47;6.23;;;-4.00;99.90;;;;;;5055045;28;20163;-47
2024/01/10 04:12:19;;;;;;;18.37;7.73;;;-4.00;99.90;;;;;;5054987;28;20194;-47
2024/01/10 04:14:44;;;;;;;14.60;6.70;;;-3.90;99.90;;;;;;5054769;28;20246;-47
2024/01/10 04:17:10;;;;;;;15.13;7.70;;;-4.00;99.90;;;;;;5054900;28;20166;-48
2024/01/10 04:19:36;;;;;;;11.00;6.57;;;-4.10;99.90;;;;;;5055551;28;20167;-48
2024/01/10 04:22:01;;;;;;;14.80;7.30;;;-4.10;99.90;;;;;;5053651;28;20583;-48
2024/01/10 04:24:27;;;;;;;18.20;7.00;;;-4.10;99.90;;;;;;5054740;28;20180;-48
2024/01/10 04:26:52;;;;;;;14.00;6.60;;;-4.10;99.90;;;;;;5055091;28;20636;-48
2024/01/10 04:29:18;;;;;;;19.40;8.10;;;-4.00;99.90;;;;;;5054703;28;20184;-48
2024/01/10 04:31:43;;;;;;;18.87;9.13;;;-4.00;99.90;;;;;;5054610;28;20170;-48
2024/01/10 04:34:09;;;;;;;16.97;8.13;;;-4.00;99.90;;;;;;5055043;28;20163;-47
2024/01/10 04:36:34;;;;;;;12.93;6.33;;;-4.00;99.90;;;;;;5054998;28;20206;-48
2024/01/10 04:39:00;;;;;;;16.80;7.27;;;-3.90;99.90;;;;;;5054471;28;20601;-49
2024/01/10 04:41:26;;;;;;;10.83;5.93;;;-4.00;99.90;;;;;;5054485;28;20652;-48
2024/01/10 04:43:51;;;;;;;9.90;5.40;;;-4.00;99.90;;;;;;5054356;28;20172;-47
2024/01/10 04:46:17;;;;;;;11.07;5.57;;;-4.00;99.90;;;;;;5054395;28;20175;-49
2024/01/10 04:48:43;;;;;;;13.87;6.40;;;-4.00;99.90;;;;;;5054270;28;20200;-48
2024/01/10 04:51:08;;;;;;;15.27;6.50;;;-4.00;99.90;;;;;;5055006;28;20171;-47
2024/01/10 04:53:34;;;;;;;11.53;5.47;;;-4.10;99.90;;;;;;5054151;28;20164;-47
2024/01/10 04:56:00;;;;;;;11.10;5.60;;;-4.10;99.90;;;;;;5053914;28;20634;-49
2024/01/10 04:58:25;;;;;;;10.07;5.67;;;-4.10;99.90;;;;;;5054128;28;20179;-51
2024/01/10 05:00:51;;;;;;;13.70;6.27;;;-4.00;99.90;;;;;;5054089;28;20175;-47
2024/01/10 05:03:17;;;;;;;11.27;6.60;;;-4.00;99.90;;;;;;5054020;28;20164;-48
2024/01/10 05:05:42;;;;;;;20.33;9.27;;;-4.00;99.90;;;;;;5054194;28;20218;-49
2024/01/10 05:08:08;;;;;;;14.67;7.67;;;-4.00;99.90;;;;;;5054501;28;20165;-47
2024/01/10 05:10:33;;;;;;;13.33;5.83;;;-4.10;99.90;;;;;;5053910;28;20632;-49
2024/01/10 05:12:59;;;;;;;11.67;6.10;;;-4.10;99.90;;;;;;5053065;28;20175;-47
2024/01/10 05:15:25;;;;;;;12.07;6.70;;;-4.10;99.90;;;;;;5053700;28;20204;-49
2024/01/10 05:17:50;;;;;;;14.23;6.33;;;-4.10;99.90;;;;;;5053697;28;20562;-49
2024/01/10 05:20:16;;;;;;;12.17;5.87;;;-4.10;99.90;;;;;;5053280;28;20170;-50
2024/01/10 05:22:42;;;;;;;17.30;8.43;;;-4.10;99.90;;;;;;5053512;28;20249;-49
2024/01/10 05:25:08;;;;;;;11.87;7.17;;;-4.00;99.90;;;;;;5054058;28;20255;-50
2024/01/10 05:27:34;;;;;;;11.40;6.47;;;-4.00;99.90;;;;;;5053602;28;20247;-48
2024/01/10 05:29:59;;;;;;;13.80;6.77;;;-4.10;99.90;;;;;;5053079;28;20688;-49
2024/01/10 05:32:26;;;;;;;12.23;6.67;;;-4.00;99.90;;;;;;5053023;28;20171;-48
2024/01/10 05:34:52;;;;;;;15.10;5.60;;;-4.10;99.90;;;;;;5053609;28;20232;-49
2024/01/10 05:37:18;;;;;;;10.67;6.07;;;-4.10;99.90;;;;;;5053443;28;20206;-52
2024/01/10 05:39:43;;;;;;;10.03;5.23;;;-4.10;99.90;;;;;;5053299;28;20675;-55
2024/01/10 05:42:09;;;;;;;11.73;5.93;;;-4.00;99.90;;;;;;5053743;28;20171;-53
2024/01/10 05:44:34;;;;;;;13.20;5.83;;;-2.60;99.90;;;;;;5053692;28;20167;-49
2024/01/10 05:47:00;;;;;;;12.77;6.47;;;-4.10;99.90;;;;;;5053450;28;20175;-49
2024/01/10 05:49:26;;;;;;;17.90;6.37;;;-4.00;99.90;;;;;;5053188;28;20237;-50
2024/01/10 05:51:51;;;;;;;11.87;5.93;;;-4.10;99.90;;;;;;5053148;28;20179;-47
2024/01/10 05:54:18;;;;;;;11.40;6.33;;;-4.10;99.90;;;;;;5053024;28;20262;-50
2024/01/10 05:56:44;;;;;;;14.70;6.47;;;-4.00;99.90;;;;;;5052790;28;20575;-50
2024/01/10 05:59:13;;;;;;;14.60;6.97;;;-4.10;99.90;;;;;;5053084;28;20177;-47
2024/01/10 06:01:38;;;;;;;15.10;6.77;;;-4.00;99.90;;;;;;5053554;28;20179;-47
2024/01/10 06:04:05;;;;;;;21.33;8.90;;;-4.10;99.90;;;;;;5052923;28;20169;-48
2024/01/10 06:06:32;;;;;;;15.60;7.07;;;-4.10;99.90;;;;;;5053112;28;20186;-51
2024/01/10 06:08:57;;;;;;;12.43;5.27;;;-4.10;99.90;;;;;;5052976;28;20182;-48
2024/01/10 06:11:23;;;;;;;11.00;5.93;;;-4.10;99.90;;;;;;5052714;28;20645;-47
2024/01/10 06:13:49;;;;;;;9.93;5.73;;;-4.10;99.90;;;;;;5052886;28;20179;-49
2024/01/10 06:16:14;;;;;;;13.73;6.33;;;-4.00;99.90;;;;;;5052673;28;20214;-48
2024/01/10 06:18:40;;;;;;;11.53;5.63;;;-4.00;99.90;;;;;;5052605;28;20163;-48
2024/01/10 06:21:05;;;;;;;10.40;5.57;;;-4.00;99.90;;;;;;5053032;28;20227;-47
2024/01/10 06:23:31;;;;;;;11.50;6.17;;;-4.00;99.90;;;;;;5051466;28;20173;-47
2024/01/10 06:25:57;;;;;;;15.57;6.07;;;-4.00;99.90;;;;;;5052348;28;20666;-47
2024/01/10 06:28:23;;;;;;;15.83;5.80;;;-4.00;99.90;;;;;;5052422;28;20225;-49
2024/01/10 06:30:49;;;;;;;13.23;5.80;;;-4.00;99.90;;;;;;5052347;28;20167;-49
2024/01/10 06:33:15;;;;;;;14.83;6.10;;;-4.10;99.90;;;;;;5052337;28;20642;-49
2024/01/10 06:35:45;;;;;;;10.77;5.80;;;-4.00;99.90;;;;;;5052118;28;20559;-48
2024/01/10 06:38:10;;;;;;;18.67;5.87;;;-4.10;99.90;;;;;;5052450;28;20167;-48
2024/01/10 06:40:36;;;;;;;10.27;6.70;;;-4.10;99.90;;;;;;5052678;28;20216;-48
2024/01/10 06:43:02;;;;;;;15.90;7.00;;;-4.20;99.90;;;;;;5052102;28;20167;-47
2024/01/10 06:45:28;;;;;;;13.63;6.87;;;-4.10;99.90;;;;;;5052039;28;20163;-49
2024/01/10 06:47:54;;;;;;;12.03;6.40;;;-4.10;99.90;;;;;;5052228;28;20191;-49
2024/01/10 06:50:20;;;;;;;12.17;6.73;;;-4.10;99.90;;;;;;5052216;28;20201;-48
2024/01/10 06:52:46;;;;;;;11.67;6.70;;;-4.10;99.90;;;;;;5051901;28;20164;-47
2024/01/10 06:55:11;;;;;;;22.50;6.67;;;-4.10;99.90;;;;;;5051719;28;20233;-47
2024/01/10 06:57:37;;;;;;;14.17;7.10;;;-4.10;99.90;;;;;;5052360;28;20694;-47
2024/01/10 07:00:06;;;;;;;12.80;6.43;;;-4.10;99.90;;;;;;5051794;28;20176;-48
2024/01/10 07:02:34;;;;;;;12.67;6.90;;;-4.10;99.90;;;;;;5051670;28;20633;-49
2024/01/10 07:04:59;;;;;;;14.37;6.97;;;-4.10;99.90;;;;;;5051651;28;20544;-47
2024/01/10 07:07:25;;;;;;;17.10;7.67;;;-4.10;99.90;;;;;;5051652;28;20175;-47
2024/01/10 07:09:51;;;;;;;15.47;6.47;;;-4.10;99.90;;;;;;5051670;28;20197;-49
2024/01/10 07:12:16;;;;;;;14.67;7.17;;;-4.10;99.90;;;;;;5051583;28;20252;-48
2024/01/10 07:14:42;;;;;;;16.53;8.17;;;-4.10;99.90;;;;;;5051471;28;20176;-48
2024/01/10 07:17:07;;;;;;;15.47;7.60;;;-4.10;99.90;;;;;;5052034;28;20179;-47
2024/01/10 07:19:33;;;;;;;16.80;8.27;;;-4.10;99.90;;;;;;5051472;28;20172;-47
2024/01/10 07:21:58;;;;;;;15.07;7.27;;;-4.10;99.90;;;;;;5051427;28;20179;-47
2024/01/10 07:24:24;;;;;;;12.73;7.27;;;-4.10;99.90;;;;;;5051434;28;20226;-48
2024/01/10 07:26:49;;;;;;;15.17;6.60;;;-4.10;99.90;;;;;;5051688;28;20614;-47
2024/01/10 07:29:15;;;;;;;10.60;6.60;;;-4.10;99.90;;;;;;5051382;28;20182;-47
2024/01/10 07:31:40;;;;;;;14.83;6.80;;;-4.10;99.90;;;;;;5051251;28;20172;-47
2024/01/10 07:34:06;;;;;;;14.40;8.07;;;-4.10;99.90;;;;;;5051818;28;20182;-47
2024/01/10 07:36:35;;;;;;;18.73;8.50;;;-4.10;99.90;;;;;;5050906;28;20226;-47
2024/01/10 07:39:01;;;;;;;19.30;9.53;;;-4.10;99.90;;;;;;5051307;28;20164;-47
2024/01/10 07:41:26;;;;;;;14.27;8.00;;;-4.00;99.90;;;;;;5051445;28;20182;-47
2024/01/10 07:43:52;;;;;;;14.93;7.50;;;-4.10;99.90;;;;;;5051121;28;20641;-48
2024/01/10 07:46:17;;;;;;;19.97;8.10;;;-4.10;99.90;;;;;;5051002;28;20202;-47
2024/01/10 07:48:43;;;;;;;14.40;7.53;;;-4.00;99.90;;;;;;5051052;28;20172;-47
2024/01/10 07:51:09;;;;;;;20.57;8.77;;;-4.00;99.90;;;;;;5051055;28;20214;-46
2024/01/10 07:53:36;;;;;;;14.90;7.60;;;-4.10;99.90;;;;;;5051527;28;20634;-47
2024/01/10 07:56:01;;;;;;;16.40;7.07;;;-4.00;99.90;;;;;;5050764;28;20239;-48
2024/01/10 07:58:28;;;;;;;26.67;13.33;;;-4.00;99.90;;;;;;5051179;28;20278;-48
2024/01/10 08:00:54;;;;;;;25.80;9.37;;;-4.00;99.90;;;;;;5051081;28;20210;-47
2024/01/10 08:03:19;;;;;;;20.93;8.07;;;-4.00;99.90;;;;;;5051159;28;20207;-47
2024/01/10 08:05:46;;;;;;;17.00;8.43;;;-3.90;99.90;;;;;;5051214;28;20191;-47
2024/01/10 08:08:13;;;;;;;18.27;8.00;;;-3.90;99.90;;;;;;5051170;28;20211;-48
2024/01/10 08:10:39;;;;;;;20.40;7.60;;;-3.90;99.90;;;;;;5051051;28;20172;-47
2024/01/10 08:13:05;;;;;;;14.77;6.80;;;-3.90;99.90;;;;;;5051624;28;20267;-48
2024/01/10 08:15:34;;;;;;;14.83;6.60;;;-3.90;99.90;;;;;;5050723;28;20291;-47
2024/01/10 08:18:00;;;;;;;12.27;6.77;;;-3.70;99.90;;;;;;5050805;28;20620;-48
2024/01/10 08:20:26;;;;;;;19.77;8.63;;;-3.80;99.90;;;;;;5050982;28;20179;-47
2024/01/10 08:22:53;;;;;;;18.40;9.13;;;-3.80;99.90;;;;;;5050769;28;20170;-47
2024/01/10 08:25:18;;;;;;;30.77;10.77;;;-3.80;99.90;;;;;;5050971;28;20238;-47
2024/01/10 08:27:45;;;;;;;25.37;10.43;;;-3.80;99.90;;;;;;5050960;28;20169;-47
2024/01/10 08:30:11;;;;;;;28.70;12.33;;;-3.80;99.90;;;;;;5050880;28;20183;-48
2024/01/10 08:32:36;;;;;;;31.20;11.73;;;-3.80;99.90;;;;;;5051246;28;20545;-51
2024/01/10 08:35:04;;;;;;;29.97;10.43;;;-3.70;99.90;;;;;;5050567;28;20222;-51
2024/01/10 08:37:30;;;;;;;28.43;11.50;;;-3.70;99.90;;;;;;5050627;28;20164;-50
2024/01/10 08:39:56;;;;;;;24.80;10.03;;;-3.70;99.90;;;;;;5050843;28;20629;-49
2024/01/10 08:42:22;;;;;;;23.73;9.97;;;-3.80;99.90;;;;;;5050526;28;20252;-48
2024/01/10 08:44:48;;;;;;;24.13;9.63;;;-3.70;99.90;;;;;;5050601;28;20196;-47
2024/01/10 08:47:14;;;;;;;19.70;9.10;;;-3.60;99.90;;;;;;5052145;28;20187;-50
2024/01/10 08:49:39;;;;;;;15.73;8.43;;;-3.60;99.90;;;;;;5054257;28;20172;-48
2024/01/10 08:52:05;;;;;;;22.40;9.40;;;-3.60;99.90;;;;;;5055073;28;20234;-50
2024/01/10 08:54:30;;;;;;;27.47;10.00;;;-3.60;99.90;;;;;;5054218;28;20253;-51
2024/01/10 08:56:59;;;;;;;24.60;10.60;;;-3.60;99.90;;;;;;5053994;28;20634;-52
2024/01/10 08:59:24;;;;;;;19.50;9.03;;;-3.60;99.90;;;;;;5054061;28;20637;-47
2024/01/10 09:01:50;;;;;;;19.33;9.47;;;-3.50;99.90;;;;;;5053957;28;20170;-53
2024/01/10 09:04:15;;;;;;;19.93;8.67;;;-3.60;99.90;;;;;;5054003;28;20219;-48
2024/01/10 09:06:41;;;;;;;22.10;9.33;;;-3.40;99.90;;;;;;5054029;28;20174;-51
2024/01/10 09:09:06;;;;;;;18.60;9.27;;;-3.50;99.90;;;;;;5054477;28;20168;-52
2024/01/10 09:11:33;;;;;;;18.47;8.33;;;-3.40;99.90;;;;;;5054057;28;20208;-50
2024/01/10 09:13:59;;;;;;;19.73;8.77;;;-3.40;99.90;;;;;;5054027;28;20208;-48
2024/01/10 09:16:24;;;;;;;20.37;8.73;;;-3.40;99.90;;;;;;5054259;28;20211;-49
2024/01/10 09:18:53;;;;;;;22.07;8.33;;;-3.30;99.90;;;;;;5053844;28;20629;-49
2024/01/10 09:21:20;;;;;;;21.33;8.00;;;-3.30;99.90;;;;;;5054176;28;20201;-49
2024/01/10 09:23:47;;;;;;;16.87;7.80;;;-3.30;99.90;;;;;;5053865;28;20167;-50
2024/01/10 09:26:13;;;;;;;14.47;7.40;;;-3.20;99.90;;;;;;5053899;28;20177;-49
2024/01/10 09:28:40;;;;;;;15.27;8.20;;;-3.30;99.90;;;;;;5054150;28;20268;-47
2024/01/10 09:31:07;;;;;;;13.93;7.38;;;-3.30;99.90;;;;;;5054384;28;20519;-48
2024/01/10 09:33:33;;;;;;;15.27;7.13;;;-3.30;99.90;;;;;;5053487;28;20175;-48
2024/01/10 09:35:59;;;;;;;16.00;7.80;;;-3.20;99.90;;;;;;5053738;28;20218;-48
2024/01/10 09:38:25;;;;;;;18.53;8.70;;;-3.10;99.90;;;;;;5053723;28;20174;-48
2024/01/10 09:40:55;;;;;;;14.60;7.23;;;-3.00;99.90;;;;;;5053405;28;20186;-48
2024/01/10 09:43:21;;;;;;;15.90;7.73;;;-2.90;99.90;;;;;;5053338;28;20265;-47
2024/01/10 09:45:49;;;;;;;15.40;7.73;;;-2.90;99.90;;;;;;5053242;28;20712;-48
2024/01/10 09:48:15;;;;;;;10.60;6.77;;;-2.80;99.90;;;;;;5053471;28;20178;-51
2024/01/10 09:50:41;;;;;;;13.40;6.73;;;-2.70;99.90;;;;;;5053422;28;20178;-51
2024/01/10 09:53:08;;;;;;;10.93;6.43;;;-2.60;99.90;;;;;;5053644;28;20222;-48
2024/01/10 09:55:37;;;;;;;14.37;7.20;;;-2.60;99.90;;;;;;5053540;28;20218;-49
2024/01/10 09:58:08;;;;;;;13.30;6.27;;;-2.50;99.90;;;;;;5053171;28;20295;-49
2024/01/10 10:00:37;;;;;;;21.77;10.07;;;-2.50;99.90;;;;;;5053805;28;20167;-49
2024/01/10 10:03:07;;;;;;;30.73;11.33;;;-2.40;99.90;;;;;;5051619;28;20534;-48
2024/01/10 10:05:34;;;;;;;48.17;16.10;;;-2.30;99.90;;;;;;5052918;28;20178;-49
2024/01/10 10:07:59;;;;;;;47.47;16.87;;;-2.30;99.90;;;;;;5053118;28;20205;-49
2024/01/10 10:10:26;;;;;;;45.38;15.82;;;-2.10;99.90;;;;;;5052789;28;20259;-48
2024/01/10 10:12:52;;;;;;;33.35;12.27;;;-2.10;99.90;;;;;;5052716;28;20258;-49
2024/01/10 10:15:22;;;;;;;72.38;21.52;;;-2.00;99.90;;;;;;5052681;28;20285;-52
2024/01/10 10:17:49;;;;;;;43.50;17.98;;;-2.10;99.90;;;;;;5052655;28;20166;-50
2024/01/10 10:20:32;;;;;;;50.10;17.07;;;-1.90;99.90;;;;;;5052630;28;20644;-49
2024/01/10 10:23:02;;;;;;;26.90;10.20;;;-2.00;99.90;;;;;;5052413;28;20684;-48
2024/01/10 10:25:45;;;;;;;58.00;18.77;;;-2.00;99.90;;;;;;5052495;28;20237;-48
2024/01/10 10:28:11;;;;;;;39.23;14.77;;;-1.90;99.90;;;;;;5052053;28;20403;-48
2024/01/10 10:30:37;;;;;;;86.80;29.02;;;-1.80;99.90;;;;;;5052838;28;20309;-48
2024/01/10 10:33:03;;;;;;;99.32;39.15;;;-1.80;99.90;;;;;;5052610;28;20167;-48
2024/01/10 10:35:28;;;;;;;39.88;20.95;;;-1.70;99.90;;;;;;5052131;28;20712;-49
2024/01/10 10:37:54;;;;;;;21.38;11.57;;;-1.70;99.90;;;;;;5052235;28;20159;-49
2024/01/10 10:40:21;;;;;;;18.02;10.77;;;-1.80;99.90;;;;;;5052272;28;20668;-48
2024/01/10 10:42:54;;;;;;;26.05;11.93;;;-1.70;99.90;;;;;;5052154;28;20169;-47
2024/01/10 10:45:25;;;;;;;22.47;11.33;;;-1.70;99.90;;;;;;5052325;28;20224;-48
2024/01/10 10:47:56;;;;;;;69.82;18.38;;;-1.60;99.90;;;;;;5052092;28;20257;-48
2024/01/10 10:50:23;;;;;;;33.03;13.15;;;-1.50;99.90;;;;;;5052383;28;20167;-49
2024/01/10 10:52:51;;;;;;;29.67;11.50;;;-1.50;99.90;;;;;;5052006;28;20163;-48
2024/01/10 10:55:17;;;;;;;25.15;12.05;;;-1.50;99.90;;;;;;5051932;28;20237;-49
2024/01/10 10:57:46;;;;;;;25.33;12.20;;;-1.50;99.90;;;;;;5051847;28;20261;-48
2024/01/10 11:00:15;;;;;;;22.70;11.48;;;-1.50;99.90;;;;;;5052068;28;20178;-49
2024/01/10 11:02:42;;;;;;;20.83;8.77;;;-1.70;99.90;;;;;;5051977;28;20166;-49
2024/01/10 11:05:09;;;;;;;27.45;15.48;;;-1.70;99.90;;;;;;5052508;28;20220;-48
2024/01/10 11:07:39;;;;;;;28.73;11.70;;;-1.80;99.90;;;;;;5052159;28;20629;-49
2024/01/10 11:10:27;;;;;;;23.80;12.43;;;-1.90;99.90;;;;;;5051585;28;20213;-48
2024/01/10 11:13:17;;;;;;;25.73;12.17;;;-1.80;99.90;;;;;;5051644;28;20217;-49
2024/01/10 11:16:04;;;;;;;27.10;11.82;;;-1.80;99.90;;;;;;5051643;28;20202;-54
2024/01/10 11:18:53;;;;;;;23.58;11.75;;;-1.80;99.90;;;;;;5051535;28;20175;-49
2024/01/10 11:21:41;;;;;;;23.35;11.57;;;-1.70;99.90;;;;;;5051446;28;20162;-50
2024/01/10 11:24:09;;;;;;;37.03;16.15;;;-1.70;99.90;;;;;;5050729;28;20177;-49
2024/01/10 11:26:37;;;;;;;24.85;14.70;;;-1.60;99.90;;;;;;5050789;28;20245;-49
2024/01/10 11:29:04;;;;;;;23.40;13.52;;;-1.50;99.90;;;;;;5051693;28;20278;-48
2024/01/10 11:31:31;;;;;;;31.20;12.00;;;-1.50;99.90;;;;;;5051293;28;20167;-48
2024/01/10 11:33:58;;;;;;;32.72;15.25;;;-1.30;99.90;;;;;;5051556;28;20261;-48
2024/01/10 11:36:26;;;;;;;86.90;39.42;;;-1.30;99.90;;;;;;5051190;28;20293;-48
2024/01/10 11:38:56;;;;;;;38.33;19.60;;;-1.20;99.90;;;;;;5049981;28;20162;-48
2024/01/10 11:41:34;;;;;;;28.90;12.27;;;-1.10;99.90;;;;;;5051460;28;20185;-49
2024/01/10 11:44:11;;;;;;;24.13;12.88;;;-1.00;99.90;;;;;;5051425;28;20171;-49
2024/01/10 11:46:41;;;;;;;24.48;10.52;;;-0.80;99.90;;;;;;5051845;28;20171;-48
2024/01/10 11:49:14;;;;;;;32.58;13.57;;;-0.70;99.90;;;;;;5051593;28;20666;-49
2024/01/10 11:51:43;;;;;;;38.63;17.25;;;-0.70;99.90;;;;;;5051158;28;20178;-50
2024/01/10 11:54:08;;;;;;;31.70;13.10;;;-0.70;99.90;;;;;;5051095;28;20689;-48
2024/01/10 11:56:44;;;;;;;27.55;13.10;;;-0.80;99.90;;;;;;5051404;28;20325;-48
2024/01/10 11:59:11;;;;;;;24.65;11.40;;;-0.80;99.90;;;;;;5051170;28;20166;-49
2024/01/10 12:01:41;;;;;;;23.42;11.70;;;-0.80;99.90;;;;;;5051489;28;20158;-49
2024/01/10 12:04:07;;;;;;;21.63;10.73;;;-0.70;99.90;;;;;;5051466;28;20564;-49
2024/01/10 12:06:36;;;;;;;23.15;11.10;;;-0.80;99.90;;;;;;5050949;28;20163;-50
2024/01/10 12:09:08;;;;;;;32.50;15.20;;;-0.70;99.90;;;;;;5050856;28;20166;-53
2024/01/10 12:11:43;;;;;;;27.35;13.20;;;-0.70;99.90;;;;;;5051922;28;20159;-49
2024/01/10 12:14:09;;;;;;;19.33;10.57;;;-0.60;99.90;;;;;;5050879;28;20554;-50
2024/01/10 12:16:35;;;;;;;31.80;16.20;;;-0.60;99.90;;;;;;5049923;28;20248;-48
2024/01/10 12:19:01;;;;;;;25.00;13.70;;;-0.60;99.90;;;;;;5050828;28;20174;-50
2024/01/10 12:21:26;;;;;;;31.08;13.50;;;-0.60;99.90;;;;;;5050800;28;20178;-50
2024/01/10 12:23:52;;;;;;;29.48;14.68;;;-0.50;99.90;;;;;;5052690;28;20178;-49
2024/01/10 12:26:18;;;;;;;27.88;13.63;;;-0.50;99.90;;;;;;5053003;28;20205;-49
2024/01/10 12:28:55;;;;;;;33.67;19.30;;;-0.40;99.90;;;;;;5052153;28;20714;-52
2024/01/10 12:31:22;;;;;;;35.35;17.08;;;-0.50;99.90;;;;;;5052718;28;20571;-50
2024/01/10 12:33:49;;;;;;;33.55;16.05;;;-0.40;99.90;;;;;;5051039;28;20665;-52